createdAt,value
2022-08-14T00:02:27.383Z,30.22
2022-08-14T00:04:57.464Z,30.26
2022-08-14T00:07:25.419Z,30.27
2022-08-14T00:10:01.561Z,30.29
2022-08-14T00:12:56.844Z,30.28
2022-08-14T00:15:29.646Z,30.29
2022-08-14T00:18:06.826Z,30.28
2022-08-14T00:20:43.027Z,30.24
2022-08-14T00:23:16.632Z,30.21
2022-08-14T00:25:53.738Z,30.16
2022-08-14T00:28:29.245Z,30.18
2022-08-14T00:31:00.974Z,30.16
2022-08-14T00:33:51.531Z,30.14
2022-08-14T00:36:35.422Z,30.14
2022-08-14T00:39:09.589Z,30.12
2022-08-14T00:41:40.738Z,30.11
2022-08-14T00:44:10.522Z,30.12
2022-08-14T00:46:40.965Z,30.08
2022-08-14T00:49:11.597Z,30.05
2022-08-14T00:51:44.644Z,30.08
2022-08-14T00:54:21.523Z,30.07
2022-08-14T00:56:54.843Z,30.09
2022-08-14T00:59:23.265Z,30.10
2022-08-14T01:01:52.888Z,30.10
2022-08-14T01:04:37.650Z,30.09
2022-08-14T01:07:21.041Z,30.07
2022-08-14T01:09:51.469Z,30.07
2022-08-14T01:12:27.065Z,30.01
2022-08-14T01:14:58.725Z,30.05
2022-08-14T01:17:49.676Z,30.04
2022-08-14T01:20:39.872Z,30.03
2022-08-14T01:23:16.326Z,30.05
2022-08-14T01:25:51.484Z,30.02
2022-08-14T01:28:47.356Z,30.01
2022-08-14T01:31:18.800Z,30.00
2022-08-14T01:35:16.509Z,30.00
2022-08-14T01:36:39.347Z,30.03
2022-08-14T01:39:13.038Z,30.03
2022-08-14T01:41:43.395Z,30.02
2022-08-14T01:44:32.480Z,29.99
2022-08-14T01:47:09.653Z,29.99
2022-08-14T01:49:45.773Z,29.99
2022-08-14T01:52:34.245Z,29.98
2022-08-14T01:55:06.731Z,29.96
2022-08-14T01:58:00.841Z,29.95
2022-08-14T02:00:27.674Z,29.94
2022-08-14T02:02:57.146Z,29.93
2022-08-14T02:05:29.463Z,29.91
2022-08-14T02:08:09.763Z,29.90
2022-08-14T02:10:46.604Z,29.91
2022-08-14T02:13:17.293Z,29.88
2022-08-14T02:15:48.387Z,29.86
2022-08-14T02:18:18.200Z,29.80
2022-08-14T02:20:47.846Z,29.78
2022-08-14T02:23:16.506Z,29.76
2022-08-14T02:26:24.347Z,29.75
2022-08-14T02:28:58.306Z,29.77
2022-08-14T02:31:42.641Z,29.76
2022-08-14T02:34:20.105Z,29.74
2022-08-14T02:37:05.157Z,29.75
2022-08-14T02:39:37.132Z,29.71
2022-08-14T02:42:13.233Z,29.73
2022-08-14T02:44:49.437Z,29.68
2022-08-14T02:47:21.045Z,29.67
2022-08-14T02:49:50.493Z,29.66
2022-08-14T02:52:56.000Z,29.66
2022-08-14T02:55:11.890Z,29.65
2022-08-14T02:57:58.108Z,29.64
2022-08-14T03:00:33.243Z,29.62
2022-08-14T03:03:07.592Z,29.61
2022-08-14T03:05:41.207Z,29.58
2022-08-14T03:08:15.750Z,29.58
2022-08-14T03:10:49.025Z,29.55
2022-08-14T03:13:21.397Z,29.52
2022-08-14T03:15:55.572Z,29.52
2022-08-14T03:18:31.217Z,29.49
2022-08-14T03:21:07.628Z,29.48
2022-08-14T03:23:38.614Z,29.44
2022-08-14T03:26:13.241Z,29.45
2022-08-14T03:28:53.133Z,29.46
2022-08-14T03:31:22.478Z,29.43
2022-08-14T03:33:54.586Z,29.43
2022-08-14T03:37:37.770Z,29.44
2022-08-14T03:39:22.290Z,29.42
2022-08-14T03:41:53.811Z,29.39
2022-08-14T03:45:26.101Z,29.38
2022-08-14T03:47:15.445Z,29.36
2022-08-14T03:49:49.804Z,29.31
2022-08-14T03:52:38.871Z,29.30
2022-08-14T03:55:08.860Z,29.30
2022-08-14T03:57:37.967Z,29.27
2022-08-14T04:00:40.533Z,29.30
2022-08-14T04:03:02.397Z,29.29
2022-08-14T04:05:42.818Z,29.30
2022-08-14T04:08:36.258Z,29.23
2022-08-14T04:11:07.872Z,29.14
2022-08-14T04:13:41.162Z,29.09
2022-08-14T04:16:13.561Z,29.07
2022-08-14T04:18:42.780Z,29.08
2022-08-14T04:21:11.754Z,29.07
2022-08-14T04:23:40.727Z,29.08
2022-08-14T04:26:14.517Z,29.09
2022-08-14T04:29:08.582Z,29.08
2022-08-14T04:32:58.245Z,29.09
2022-08-14T04:34:27.110Z,29.07
2022-08-14T04:37:22.425Z,29.07
2022-08-14T04:40:11.709Z,29.06
2022-08-14T04:42:58.177Z,29.06
2022-08-14T04:45:32.834Z,29.03
2022-08-14T04:48:38.962Z,29.02
2022-08-14T04:51:04.069Z,29.02
2022-08-14T04:53:36.039Z,29.00
2022-08-14T04:56:10.607Z,28.98
2022-08-14T04:59:01.562Z,28.99
2022-08-14T05:01:39.669Z,28.96
2022-08-14T05:04:16.154Z,28.96
2022-08-14T05:06:44.885Z,28.97
2022-08-14T05:09:14.363Z,28.95
2022-08-14T05:11:44.223Z,28.97
2022-08-14T05:14:34.155Z,28.93
2022-08-14T05:17:03.567Z,28.97
2022-08-14T05:19:33.580Z,28.97
2022-08-14T05:22:16.720Z,28.91
2022-08-14T05:24:51.334Z,28.88
2022-08-14T05:27:22.996Z,28.87
2022-08-14T05:29:55.097Z,28.86
2022-08-14T05:32:27.535Z,28.82
2022-08-14T05:34:59.169Z,28.81
2022-08-14T05:37:29.802Z,28.74
2022-08-14T05:40:00.476Z,28.71
2022-08-14T05:42:34.323Z,28.72
2022-08-14T05:45:05.016Z,28.72
2022-08-14T05:47:41.332Z,28.73
2022-08-14T05:50:17.535Z,28.63
2022-08-14T05:52:50.720Z,28.57
2022-08-14T05:55:22.193Z,28.58
2022-08-14T05:57:52.937Z,28.58
2022-08-14T06:00:29.948Z,28.56
2022-08-14T06:03:06.867Z,28.56
2022-08-14T06:05:38.696Z,28.61
2022-08-14T06:08:08.785Z,28.54
2022-08-14T06:11:02.749Z,28.36
2022-08-14T06:13:44.973Z,28.36
2022-08-14T06:16:15.511Z,28.28
2022-08-14T06:18:47.661Z,28.32
2022-08-14T06:21:17.730Z,28.40
2022-08-14T06:23:48.839Z,28.54
2022-08-14T06:26:20.619Z,28.59
2022-08-14T06:28:52.067Z,28.66
2022-08-14T06:31:21.069Z,28.65
2022-08-14T06:35:10.123Z,28.72
2022-08-14T06:36:39.792Z,28.74
2022-08-14T06:39:10.504Z,28.66
2022-08-14T06:41:58.176Z,28.62
2022-08-14T06:44:32.929Z,28.65
2022-08-14T06:47:02.654Z,28.65
2022-08-14T06:49:31.039Z,28.67
2022-08-14T06:52:15.102Z,28.60
2022-08-14T06:54:44.202Z,28.59
2022-08-14T06:57:13.194Z,28.60
2022-08-14T06:59:42.119Z,28.59
2022-08-14T07:02:28.837Z,28.41
2022-08-14T07:05:20.873Z,28.44
2022-08-14T07:07:51.138Z,28.33
2022-08-14T07:10:25.052Z,28.26
2022-08-14T07:13:01.387Z,28.27
2022-08-14T07:15:33.715Z,28.31
2022-08-14T07:18:03.675Z,28.29
2022-08-14T07:20:33.949Z,28.37
2022-08-14T07:23:09.227Z,28.45
2022-08-14T07:25:39.822Z,28.46
2022-08-14T07:28:12.901Z,28.41
2022-08-14T07:30:51.573Z,28.42
2022-08-14T07:33:24.812Z,28.38
2022-08-14T07:36:00.873Z,28.38
2022-08-14T07:38:37.649Z,28.34
2022-08-14T07:41:14.522Z,28.24
2022-08-14T07:43:47.640Z,28.33
2022-08-14T07:46:29.365Z,28.40
2022-08-14T07:48:59.289Z,28.34
2022-08-14T07:51:36.743Z,28.34
2022-08-14T07:54:11.009Z,28.32
2022-08-14T07:56:48.238Z,28.32
2022-08-14T07:59:40.618Z,28.19
2022-08-14T08:02:18.979Z,28.16
2022-08-14T08:04:53.005Z,28.17
2022-08-14T08:07:23.766Z,27.97
2022-08-14T08:09:57.193Z,27.88
2022-08-14T08:12:31.204Z,27.67
2022-08-14T08:15:07.229Z,27.87
2022-08-14T08:17:53.531Z,28.08
2022-08-14T08:20:30.224Z,28.19
2022-08-14T08:23:00.636Z,28.34
2022-08-14T08:25:40.049Z,28.48
2022-08-14T08:28:19.823Z,28.64
2022-08-14T08:30:56.222Z,28.60
2022-08-14T08:33:32.279Z,28.66
2022-08-14T08:36:12.744Z,28.78
2022-08-14T08:39:18.062Z,28.83
2022-08-14T08:41:43.821Z,28.90
2022-08-14T08:44:17.458Z,28.92
2022-08-14T08:47:05.778Z,29.01
2022-08-14T08:49:52.583Z,29.15
2022-08-14T08:52:31.990Z,29.17
2022-08-14T08:55:04.960Z,29.22
2022-08-14T08:57:37.932Z,29.27
2022-08-14T09:00:25.450Z,29.34
2022-08-14T09:02:59.218Z,29.35
2022-08-14T09:05:28.879Z,29.37
2022-08-14T09:08:31.857Z,29.43
2022-08-14T09:11:00.057Z,29.43
2022-08-14T09:13:33.163Z,29.47
2022-08-14T09:16:18.678Z,29.50
2022-08-14T09:18:48.094Z,29.52
2022-08-14T09:21:16.578Z,29.53
2022-08-14T09:24:26.541Z,29.56
2022-08-14T09:26:36.055Z,29.57
2022-08-14T09:29:07.946Z,29.57
2022-08-14T09:31:53.389Z,29.57
2022-08-14T09:34:37.994Z,29.62
2022-08-14T09:37:35.786Z,29.67
2022-08-14T09:40:10.164Z,29.63
2022-08-14T09:42:53.791Z,29.68
2022-08-14T09:45:40.111Z,29.69
2022-08-14T09:48:27.717Z,29.69
2022-08-14T09:54:18.916Z,29.74
2022-08-14T09:56:45.678Z,29.76
2022-08-14T09:59:16.629Z,29.78
2022-08-14T10:01:52.651Z,29.80
2022-08-14T10:04:33.669Z,29.78
2022-08-14T10:07:04.134Z,29.80
2022-08-14T10:09:33.331Z,29.80
2022-08-14T10:12:04.770Z,29.79
2022-08-14T10:14:37.156Z,29.82
2022-08-14T10:17:08.438Z,29.82
2022-08-14T10:19:49.034Z,29.82
2022-08-14T10:23:11.941Z,29.85
2022-08-14T10:25:12.291Z,29.87
2022-08-14T10:27:40.257Z,29.83
2022-08-14T10:30:22.435Z,29.87
2022-08-14T10:32:55.886Z,29.87
2022-08-14T10:35:31.796Z,29.84
2022-08-14T10:38:03.488Z,29.84
2022-08-14T10:40:38.742Z,29.87
2022-08-14T10:43:23.343Z,29.91
2022-08-14T10:45:59.644Z,29.94
2022-08-14T10:48:37.238Z,29.95
2022-08-14T10:51:10.352Z,29.96
2022-08-14T10:53:39.235Z,29.96
2022-08-14T10:56:21.537Z,29.96
2022-08-14T10:59:02.522Z,30.12
2022-08-14T11:01:38.651Z,30.00
2022-08-14T11:04:27.722Z,30.02
2022-08-14T11:06:56.742Z,29.99
2022-08-14T11:09:26.040Z,29.93
2022-08-14T11:12:33.314Z,29.96
2022-08-14T11:14:59.474Z,30.05
2022-08-14T11:17:32.861Z,30.07
2022-08-14T11:20:07.018Z,30.10
2022-08-14T11:22:56.392Z,30.09
2022-08-14T11:25:36.684Z,30.16
2022-08-14T11:28:14.703Z,30.14
2022-08-14T11:30:54.254Z,30.14
2022-08-14T11:33:24.487Z,30.20
2022-08-14T11:35:59.551Z,30.23
2022-08-14T11:38:29.233Z,30.27
2022-08-14T11:40:58.662Z,30.34
2022-08-14T11:43:30.548Z,30.27
2022-08-14T11:45:59.320Z,30.40
2022-08-14T11:49:01.658Z,30.45
2022-08-14T11:51:24.007Z,30.54
2022-08-14T11:53:58.478Z,30.56
2022-08-14T11:56:30.586Z,30.66
2022-08-14T11:58:59.410Z,30.67
2022-08-14T12:01:32.693Z,30.72
2022-08-14T12:04:32.585Z,30.77
2022-08-14T12:07:03.545Z,30.95
2022-08-14T12:09:33.278Z,30.93
2022-08-14T12:12:03.617Z,31.02
2022-08-14T12:14:35.097Z,31.11
2022-08-14T12:17:12.868Z,31.24
2022-08-14T12:19:51.081Z,31.37
2022-08-14T12:22:34.026Z,31.39
2022-08-14T12:25:08.478Z,31.44
2022-08-14T12:27:46.618Z,31.48
2022-08-14T12:30:29.255Z,31.50
2022-08-14T12:33:08.601Z,31.55
2022-08-14T12:35:41.283Z,31.66
2022-08-14T12:38:19.550Z,31.82
2022-08-14T12:40:50.321Z,31.88
2022-08-14T12:43:19.766Z,31.91
2022-08-14T12:45:52.281Z,31.91
2022-08-14T12:48:31.956Z,31.87
2022-08-14T12:51:00.726Z,31.88
2022-08-14T12:53:38.699Z,31.99
2022-08-14T12:56:22.046Z,31.97
2022-08-14T12:58:58.570Z,32.02
2022-08-14T13:01:30.966Z,31.97
2022-08-14T13:04:10.418Z,31.99
2022-08-14T13:06:40.408Z,31.94
2022-08-14T13:09:11.488Z,32.02
2022-08-14T13:11:44.956Z,32.08
2022-08-14T13:14:17.269Z,32.09
2022-08-14T13:16:50.278Z,32.18
2022-08-14T13:19:19.892Z,32.54
2022-08-14T13:21:58.680Z,32.69
2022-08-14T13:24:40.021Z,32.75
2022-08-14T13:27:10.818Z,32.97
2022-08-14T13:29:46.761Z,32.93
2022-08-14T13:32:16.320Z,33.01
2022-08-14T13:34:48.397Z,33.02
2022-08-14T13:37:17.429Z,32.99
2022-08-14T13:39:56.200Z,32.89
2022-08-14T13:42:30.751Z,32.78
2022-08-14T13:45:02.829Z,32.86
2022-08-14T13:47:33.658Z,33.12
2022-08-14T13:50:05.002Z,33.46
2022-08-14T13:52:53.497Z,33.91
2022-08-14T13:55:27.883Z,34.28
2022-08-14T13:58:04.157Z,34.37
2022-08-14T14:00:51.807Z,34.36
2022-08-14T14:03:25.394Z,34.19
2022-08-14T14:05:59.163Z,34.32
2022-08-14T14:08:43.544Z,34.41
2022-08-14T14:11:20.408Z,34.69
2022-08-14T14:13:49.460Z,34.94
2022-08-14T14:16:26.122Z,35.15
2022-08-14T14:19:06.773Z,35.07
2022-08-14T14:21:40.766Z,34.79
2022-08-14T14:24:15.443Z,34.63
2022-08-14T14:26:50.609Z,34.69
2022-08-14T14:29:24.028Z,34.67
2022-08-14T14:31:54.942Z,34.78
2022-08-14T14:34:29.483Z,35.10
2022-08-14T14:37:03.086Z,35.37
2022-08-14T14:39:37.427Z,35.43
2022-08-14T14:42:31.959Z,35.65
2022-08-14T14:45:06.632Z,35.81
2022-08-14T14:47:35.644Z,36.13
2022-08-14T14:50:05.552Z,36.34
2022-08-14T14:52:37.078Z,36.55
2022-08-14T14:55:12.559Z,36.69
2022-08-14T14:57:52.093Z,36.81
2022-08-14T15:00:30.962Z,36.69
2022-08-14T15:03:00.159Z,36.65
2022-08-14T15:05:28.855Z,36.72
2022-08-14T15:07:57.838Z,36.74
2022-08-14T15:10:34.271Z,36.78
2022-08-14T15:13:07.235Z,36.95
2022-08-14T15:15:37.392Z,36.95
2022-08-14T15:18:36.389Z,36.84
2022-08-14T15:21:01.482Z,36.80
2022-08-14T15:23:32.233Z,36.71
2022-08-14T15:26:13.443Z,36.59
2022-08-14T15:29:02.947Z,36.80
2022-08-14T15:31:36.210Z,37.13
2022-08-14T15:34:45.104Z,37.33
2022-08-14T15:37:04.421Z,37.46
2022-08-14T15:39:34.040Z,37.40
2022-08-14T15:42:14.730Z,37.33
2022-08-14T15:44:58.431Z,37.50
2022-08-14T15:47:33.304Z,37.67
2022-08-14T15:50:05.921Z,37.70
2022-08-14T15:52:44.858Z,37.75
2022-08-14T15:55:16.696Z,37.65
2022-08-14T15:58:01.916Z,37.57
2022-08-14T16:00:53.866Z,37.50
2022-08-14T16:03:27.008Z,37.31
2022-08-14T16:06:02.864Z,37.05
2022-08-14T16:08:31.060Z,36.85
2022-08-14T16:11:01.524Z,36.69
2022-08-14T16:13:41.629Z,36.62
2022-08-14T16:16:47.657Z,36.50
2022-08-14T16:19:10.869Z,36.34
2022-08-14T16:22:01.516Z,36.34
2022-08-14T16:24:35.954Z,36.41
2022-08-14T16:27:38.681Z,36.51
2022-08-14T16:30:24.734Z,36.41
2022-08-14T16:32:59.155Z,36.13
2022-08-14T16:35:43.304Z,35.93
2022-08-14T16:38:44.886Z,35.76
2022-08-14T16:41:18.243Z,35.70
2022-08-14T16:43:53.384Z,35.45
2022-08-14T16:46:23.537Z,35.36
2022-08-14T16:48:58.527Z,35.35
2022-08-14T16:51:27.883Z,35.39
2022-08-14T16:53:58.906Z,35.41
2022-08-14T16:56:34.939Z,35.38
2022-08-14T16:59:07.250Z,35.30
2022-08-14T17:01:37.359Z,35.26
2022-08-14T17:04:14.984Z,35.20
2022-08-14T17:06:55.056Z,35.13
2022-08-14T17:09:32.361Z,35.09
2022-08-14T17:12:08.243Z,35.01
2022-08-14T17:14:55.001Z,34.92
2022-08-14T17:17:25.906Z,34.78
2022-08-14T17:20:25.068Z,34.68
2022-08-14T17:22:53.060Z,34.58
2022-08-14T17:25:24.492Z,34.54
2022-08-14T17:28:49.965Z,34.53
2022-08-14T17:31:03.770Z,34.61
2022-08-14T17:33:33.827Z,34.45
2022-08-14T17:36:21.282Z,34.41
2022-08-14T17:39:07.777Z,34.35
2022-08-14T17:41:38.745Z,34.34
2022-08-14T17:44:34.446Z,34.35
2022-08-14T17:47:14.750Z,34.30
2022-08-14T17:49:47.667Z,34.27
2022-08-14T17:52:34.904Z,34.21
2022-08-14T17:56:02.413Z,34.17
2022-08-14T17:58:02.162Z,34.15
2022-08-14T18:00:52.366Z,34.12
2022-08-14T18:03:48.215Z,34.10
2022-08-14T18:06:40.199Z,34.06
2022-08-14T18:09:24.865Z,34.05
2022-08-14T18:11:58.714Z,34.05
2022-08-14T18:14:48.768Z,34.00
2022-08-14T18:17:23.970Z,33.96
2022-08-14T18:19:57.694Z,33.97
2022-08-14T18:22:39.489Z,33.93
2022-08-14T18:25:18.246Z,33.93
2022-08-14T18:27:51.972Z,33.91
2022-08-14T18:30:33.336Z,33.89
2022-08-14T18:33:20.954Z,33.88
2022-08-14T18:35:59.980Z,33.76
2022-08-14T18:38:45.782Z,33.70
2022-08-14T18:41:36.827Z,33.66
2022-08-14T18:44:10.535Z,33.54
2022-08-14T18:47:28.807Z,33.49
2022-08-14T18:50:26.298Z,33.38
2022-08-14T18:53:06.915Z,33.32
2022-08-14T18:55:53.145Z,33.29
2022-08-14T18:58:31.328Z,33.21
2022-08-14T19:01:04.631Z,33.14
2022-08-14T19:03:57.367Z,33.12
2022-08-14T19:06:55.953Z,33.09
2022-08-14T19:09:58.032Z,33.02
2022-08-14T19:13:04.836Z,33.00
2022-08-14T19:15:36.948Z,32.92
2022-08-14T19:18:25.973Z,32.92
2022-08-14T19:20:59.417Z,32.85
2022-08-14T19:23:43.308Z,32.74
2022-08-14T19:26:35.904Z,32.65
2022-08-14T19:29:37.689Z,32.64
2022-08-14T19:32:42.543Z,32.64
2022-08-14T19:35:49.351Z,32.66
2022-08-14T19:38:52.931Z,32.67
2022-08-14T19:41:29.623Z,32.56
2022-08-14T19:44:10.827Z,32.58
2022-08-14T19:47:02.501Z,32.52
2022-08-14T19:50:08.636Z,32.52
2022-08-14T19:52:35.237Z,32.50
2022-08-14T19:55:17.640Z,32.54
2022-08-14T19:57:51.986Z,32.53
2022-08-14T20:00:30.337Z,32.51
2022-08-14T20:03:11.887Z,32.52
2022-08-14T20:05:46.311Z,32.52
2022-08-14T20:11:00.003Z,32.66
2022-08-14T20:11:20.705Z,32.48
2022-08-14T20:14:10.356Z,32.49
2022-08-14T20:16:42.950Z,32.44
2022-08-14T20:19:24.854Z,32.44
2022-08-14T20:22:34.627Z,32.43
2022-08-14T20:24:55.303Z,32.41
2022-08-14T20:27:39.617Z,32.39
2022-08-14T20:30:33.931Z,32.22
2022-08-14T20:33:11.042Z,31.79
2022-08-14T20:35:46.943Z,31.62
2022-08-14T20:38:29.247Z,31.56
2022-08-14T20:41:06.355Z,31.57
2022-08-14T20:43:55.751Z,31.63
2022-08-14T20:46:29.927Z,31.64
2022-08-14T20:49:02.195Z,31.57
2022-08-14T20:51:37.339Z,31.64
2022-08-14T20:54:09.063Z,31.71
2022-08-14T20:56:40.474Z,31.78
2022-08-14T20:59:17.851Z,31.88
2022-08-14T21:01:55.484Z,31.92
2022-08-14T21:04:28.461Z,31.98
2022-08-14T21:07:24.696Z,32.03
2022-08-14T21:10:04.974Z,32.06
2022-08-14T21:12:35.981Z,32.09
2022-08-14T21:15:10.044Z,32.10
2022-08-14T21:17:43.221Z,32.12
2022-08-14T21:20:25.226Z,32.13
2022-08-14T21:23:00.535Z,32.15
2022-08-14T21:25:31.525Z,32.13
2022-08-14T21:28:05.923Z,32.14
2022-08-14T21:30:51.512Z,32.13
2022-08-14T21:33:23.409Z,32.15
2022-08-14T21:35:54.849Z,32.11
2022-08-14T21:38:33.859Z,32.10
2022-08-14T21:41:43.531Z,32.10
2022-08-14T21:44:18.168Z,32.10
2022-08-14T21:46:53.368Z,32.04
2022-08-14T21:49:33.809Z,32.01
2022-08-14T21:52:51.079Z,31.99
2022-08-14T21:55:00.639Z,31.94
2022-08-14T21:57:56.804Z,31.94
2022-08-14T22:00:42.262Z,31.92
2022-08-14T22:03:18.088Z,31.91
2022-08-14T22:05:51.484Z,31.93
2022-08-14T22:08:26.936Z,31.93
2022-08-14T22:10:59.221Z,31.89
2022-08-14T22:13:33.806Z,31.90
2022-08-14T22:17:03.326Z,31.87
2022-08-14T22:19:10.466Z,31.88
2022-08-14T22:21:44.132Z,31.87
2022-08-14T22:24:38.148Z,32.01
2022-08-14T22:27:09.166Z,31.82
2022-08-14T22:29:38.775Z,31.81
2022-08-14T22:32:10.717Z,31.78
2022-08-14T22:34:48.118Z,31.79
2022-08-14T22:37:19.874Z,31.81
2022-08-14T22:40:50.731Z,31.77
2022-08-14T22:43:00.656Z,31.77
2022-08-14T22:45:36.515Z,31.72
2022-08-14T22:48:10.808Z,31.69
2022-08-14T22:50:53.407Z,31.68
2022-08-14T22:53:24.210Z,31.68
2022-08-14T22:55:58.094Z,31.68
2022-08-14T22:58:31.644Z,31.67
2022-08-14T23:01:10.632Z,31.67
2022-08-14T23:03:44.077Z,31.65
2022-08-14T23:07:03.076Z,31.62
2022-08-14T23:09:35.442Z,31.62
2022-08-14T23:11:58.832Z,31.60
2022-08-14T23:14:32.917Z,31.59
2022-08-14T23:17:06.221Z,31.59
2022-08-14T23:19:44.586Z,31.58
2022-08-14T23:22:17.100Z,31.55
2022-08-14T23:24:57.898Z,31.56
2022-08-14T23:28:02.669Z,31.51
2022-08-14T23:30:33.928Z,31.50
2022-08-14T23:33:07.563Z,31.47
2022-08-14T23:35:58.672Z,31.48
2022-08-14T23:38:34.431Z,31.48
2022-08-14T23:41:12.853Z,31.48
2022-08-14T23:43:51.458Z,31.47
2022-08-14T23:46:23.798Z,31.44
2022-08-14T23:49:07.427Z,31.45
2022-08-14T23:51:44.309Z,31.44
2022-08-14T23:54:47.521Z,31.42
2022-08-14T23:57:10.250Z,31.42
2022-08-14T23:59:45.114Z,31.39
